createdAt,value
2022-12-18T00:00:34.797Z,13.38
2022-12-18T00:03:05.057Z,12.57
2022-12-18T00:05:35.318Z,11.75
2022-12-18T00:08:09.383Z,12.57
2022-12-18T00:10:39.759Z,13.88
2022-12-18T00:13:10.467Z,20.98
2022-12-18T00:15:41.093Z,13.15
2022-12-18T00:18:13.813Z,11.52
2022-12-18T00:20:46.285Z,15.82
2022-12-18T00:23:16.543Z,11.25
2022-12-18T00:25:46.900Z,12.48
2022-12-18T00:28:17.058Z,13.07
2022-12-18T00:30:47.228Z,12.27
2022-12-18T00:33:17.439Z,9.65
2022-12-18T00:35:47.671Z,11.43
2022-12-18T00:38:17.887Z,12.93
2022-12-18T00:40:50.033Z,9.85
2022-12-18T00:43:20.173Z,10.88
2022-12-18T00:45:50.517Z,12.95
2022-12-18T00:48:20.765Z,10.38
2022-12-18T00:50:51.742Z,9.32
2022-12-18T00:53:22.067Z,9.20
2022-12-18T00:55:52.206Z,10.68
2022-12-18T00:58:22.569Z,7.18
2022-12-18T01:00:52.777Z,10.13
2022-12-18T01:03:22.978Z,8.52
2022-12-18T01:05:53.095Z,19.15
2022-12-18T01:08:23.519Z,17.90
2022-12-18T01:10:53.742Z,10.48
2022-12-18T01:13:23.972Z,9.50
2022-12-18T01:15:54.239Z,10.05
2022-12-18T01:18:24.450Z,9.80
2022-12-18T01:20:54.597Z,10.90
2022-12-18T01:23:27.578Z,9.48
2022-12-18T01:26:05.034Z,9.15
2022-12-18T01:28:35.294Z,10.00
2022-12-18T01:31:18.158Z,12.73
2022-12-18T01:33:52.533Z,14.10
2022-12-18T01:36:27.614Z,7.75
2022-12-18T01:39:00.180Z,9.25
2022-12-18T01:41:52.075Z,12.95
2022-12-18T01:45:02.592Z,10.77
2022-12-18T01:47:45.736Z,10.48
2022-12-18T01:50:28.368Z,7.53
2022-12-18T01:53:07.602Z,9.48
2022-12-18T01:55:53.355Z,7.95
2022-12-18T01:58:32.231Z,12.15
2022-12-18T02:01:02.629Z,6.70
2022-12-18T02:03:32.827Z,10.93
2022-12-18T02:06:41.253Z,10.27
2022-12-18T02:09:35.651Z,13.05
2022-12-18T02:12:34.406Z,10.32
2022-12-18T02:15:16.623Z,10.52
2022-12-18T02:18:02.036Z,10.75
2022-12-18T02:20:46.992Z,8.65
2022-12-18T02:23:40.065Z,9.18
2022-12-18T02:26:28.342Z,9.32
2022-12-18T02:29:11.619Z,8.02
2022-12-18T02:31:48.293Z,8.73
2022-12-18T02:34:20.820Z,9.82
2022-12-18T02:36:52.778Z,8.55
2022-12-18T02:39:25.305Z,7.97
2022-12-18T02:41:55.752Z,9.45
2022-12-18T02:44:25.931Z,8.05
2022-12-18T02:46:56.205Z,8.15
2022-12-18T02:49:47.486Z,9.02
2022-12-18T02:52:45.480Z,9.20
2022-12-18T02:55:24.818Z,9.85
2022-12-18T02:57:59.792Z,9.50
2022-12-18T03:00:49.599Z,11.65
2022-12-18T03:03:31.579Z,13.55
2022-12-18T03:06:10.885Z,12.23
2022-12-18T03:08:46.182Z,8.90
2022-12-18T03:11:16.761Z,7.60
2022-12-18T03:13:57.366Z,9.52
2022-12-18T03:16:31.426Z,11.60
2022-12-18T03:19:10.244Z,11.55
2022-12-18T03:21:46.893Z,8.25
2022-12-18T03:24:20.000Z,9.32
2022-12-18T03:26:53.798Z,7.95
2022-12-18T03:29:40.112Z,8.52
2022-12-18T03:32:22.206Z,8.82
2022-12-18T03:34:55.026Z,7.97
2022-12-18T03:37:25.315Z,7.95
2022-12-18T03:39:55.513Z,8.75
2022-12-18T03:42:25.611Z,12.52
2022-12-18T03:45:04.825Z,13.18
2022-12-18T03:47:42.435Z,12.20
2022-12-18T03:50:33.989Z,8.13
2022-12-18T03:53:48.696Z,8.48
2022-12-18T03:56:21.422Z,9.30
2022-12-18T03:58:54.462Z,9.55
2022-12-18T04:01:30.910Z,8.73
2022-12-18T04:04:03.392Z,8.02
2022-12-18T04:06:33.958Z,11.43
2022-12-18T04:09:05.171Z,9.95
2022-12-18T04:11:35.374Z,7.95
2022-12-18T04:14:07.324Z,8.93
2022-12-18T04:16:37.934Z,10.00
2022-12-18T04:19:08.137Z,15.02
2022-12-18T04:21:38.299Z,12.20
2022-12-18T04:24:08.545Z,11.30
2022-12-18T04:26:39.495Z,11.43
2022-12-18T04:29:11.172Z,8.75
2022-12-18T04:31:41.294Z,12.50
2022-12-18T04:34:11.462Z,9.57
2022-12-18T04:36:41.655Z,10.98
2022-12-18T04:39:12.110Z,9.63
2022-12-18T04:41:42.424Z,9.35
2022-12-18T04:44:12.650Z,14.50
2022-12-18T04:46:42.968Z,9.60
2022-12-18T04:49:13.661Z,13.18
2022-12-18T04:51:43.785Z,8.68
2022-12-18T04:54:13.920Z,12.32
2022-12-18T04:56:44.048Z,8.90
2022-12-18T04:59:14.373Z,8.23
2022-12-18T05:01:44.712Z,12.52
2022-12-18T05:04:15.262Z,12.13
2022-12-18T05:06:45.433Z,16.10
2022-12-18T05:09:15.753Z,10.48
2022-12-18T05:11:45.991Z,10.32
2022-12-18T05:14:16.661Z,8.98
2022-12-18T05:16:46.862Z,13.10
2022-12-18T05:19:17.078Z,12.70
2022-12-18T05:21:47.265Z,12.73
2022-12-18T05:24:17.454Z,11.85
2022-12-18T05:26:47.825Z,13.60
2022-12-18T05:29:18.098Z,12.57
2022-12-18T05:31:48.286Z,11.13
2022-12-18T05:34:18.590Z,12.18
2022-12-18T05:36:48.788Z,10.07
2022-12-18T05:39:18.921Z,19.08
2022-12-18T05:41:49.032Z,14.05
2022-12-18T05:44:19.086Z,10.68
2022-12-18T05:46:49.394Z,17.35
2022-12-18T05:49:19.557Z,13.75
2022-12-18T05:51:50.916Z,14.38
2022-12-18T05:54:21.044Z,10.80
2022-12-18T05:56:51.251Z,11.50
2022-12-18T05:59:21.430Z,11.82
2022-12-18T06:01:51.770Z,9.82
2022-12-18T06:04:22.072Z,10.93
2022-12-18T06:06:52.170Z,10.40
2022-12-18T06:09:22.318Z,8.23
2022-12-18T06:11:53.786Z,22.90
2022-12-18T06:14:24.013Z,15.68
2022-12-18T06:16:54.165Z,10.57
2022-12-18T06:19:24.370Z,16.23
2022-12-18T06:21:54.533Z,11.23
2022-12-18T06:24:24.625Z,10.55
2022-12-18T06:26:54.718Z,10.32
2022-12-18T06:29:24.879Z,10.05
2022-12-18T06:31:55.010Z,10.52
2022-12-18T06:34:25.357Z,11.20
2022-12-18T06:36:55.492Z,12.20
2022-12-18T06:39:26.029Z,13.13
2022-12-18T06:41:56.515Z,11.40
2022-12-18T06:44:26.750Z,12.50
2022-12-18T06:46:56.991Z,10.68
2022-12-18T06:49:30.403Z,12.07
2022-12-18T06:52:01.063Z,12.38
2022-12-18T06:54:33.537Z,13.55
2022-12-18T06:57:03.834Z,11.43
2022-12-18T06:59:34.017Z,14.80
2022-12-18T07:02:04.370Z,13.20
2022-12-18T07:04:34.707Z,10.75
2022-12-18T07:07:06.652Z,11.75
2022-12-18T07:09:39.064Z,8.48
2022-12-18T07:12:09.651Z,9.98
2022-12-18T07:14:42.565Z,13.45
2022-12-18T07:17:12.800Z,10.68
2022-12-18T07:19:42.910Z,16.25
2022-12-18T07:22:13.110Z,16.05
2022-12-18T07:24:43.257Z,10.48
2022-12-18T07:27:13.355Z,11.02
2022-12-18T07:29:43.542Z,12.00
2022-12-18T07:32:13.787Z,16.00
2022-12-18T07:34:44.870Z,13.18
2022-12-18T07:37:15.005Z,16.05
2022-12-18T07:39:45.589Z,11.02
2022-12-18T07:42:31.720Z,11.65
2022-12-18T07:45:02.971Z,12.18
2022-12-18T07:47:35.893Z,11.45
2022-12-18T07:50:06.675Z,11.65
2022-12-18T07:52:36.903Z,12.35
2022-12-18T07:55:07.395Z,10.48
2022-12-18T07:57:57.648Z,11.25
2022-12-18T08:00:27.955Z,12.05
2022-12-18T08:02:58.721Z,13.15
2022-12-18T08:05:29.547Z,13.30
2022-12-18T08:07:59.613Z,12.38
2022-12-18T08:10:29.787Z,14.52
2022-12-18T08:13:04.603Z,12.95
2022-12-18T08:15:35.153Z,15.75
2022-12-18T08:18:06.541Z,18.17
2022-12-18T08:20:39.224Z,10.70
2022-12-18T08:23:09.738Z,15.30
2022-12-18T08:25:39.893Z,10.63
2022-12-18T08:28:10.091Z,11.18
2022-12-18T08:30:40.384Z,12.35
2022-12-18T08:33:10.631Z,12.15
2022-12-18T08:35:45.557Z,17.35
2022-12-18T08:38:16.290Z,14.57
2022-12-18T08:40:46.730Z,12.45
2022-12-18T08:43:35.262Z,15.82
2022-12-18T08:46:05.537Z,11.50
2022-12-18T08:48:35.834Z,20.33
2022-12-18T08:51:06.286Z,14.75
2022-12-18T08:53:37.622Z,11.20
2022-12-18T08:56:08.876Z,12.95
2022-12-18T08:58:39.138Z,16.08
2022-12-18T09:01:11.710Z,12.23
2022-12-18T09:03:42.381Z,12.25
2022-12-18T09:06:16.852Z,13.93
2022-12-18T09:08:47.112Z,11.23
2022-12-18T09:11:23.047Z,17.73
2022-12-18T09:13:54.973Z,15.93
2022-12-18T09:16:31.633Z,16.52
2022-12-18T09:19:04.562Z,18.02
2022-12-18T09:21:36.887Z,14.30
2022-12-18T09:24:08.852Z,15.35
2022-12-18T09:26:39.386Z,14.00
2022-12-18T09:29:10.538Z,19.60
2022-12-18T09:31:40.827Z,13.43
2022-12-18T09:34:11.112Z,16.58
2022-12-18T09:36:41.208Z,12.50
2022-12-18T09:39:11.394Z,22.75
2022-12-18T09:41:46.864Z,16.27
2022-12-18T09:44:20.589Z,12.90
2022-12-18T09:47:18.537Z,19.95
2022-12-18T09:49:53.912Z,12.98
2022-12-18T09:52:32.825Z,17.35
2022-12-18T09:55:37.225Z,12.43
2022-12-18T09:58:16.676Z,12.18
2022-12-18T10:00:50.457Z,12.80
2022-12-18T10:03:20.820Z,11.35
2022-12-18T10:05:57.042Z,16.75
2022-12-18T10:08:45.641Z,13.60
2022-12-18T10:11:22.610Z,15.43
2022-12-18T10:14:04.528Z,14.68
2022-12-18T10:16:49.194Z,13.63
2022-12-18T10:19:50.498Z,19.10
2022-12-18T10:22:53.455Z,11.57
2022-12-18T10:25:29.156Z,24.60
2022-12-18T10:28:09.196Z,17.70
2022-12-18T10:30:41.237Z,17.83
2022-12-18T10:33:23.813Z,13.60
2022-12-18T10:35:55.382Z,16.73
2022-12-18T10:38:28.370Z,14.52
2022-12-18T10:40:58.596Z,14.05
2022-12-18T10:43:37.191Z,11.90
2022-12-18T10:46:13.004Z,14.38
2022-12-18T10:48:49.319Z,15.15
2022-12-18T10:51:34.729Z,12.73
2022-12-18T10:54:07.977Z,12.13
2022-12-18T10:56:40.143Z,11.00
2022-12-18T10:59:14.178Z,13.35
2022-12-18T11:01:53.999Z,18.17
2022-12-18T11:04:37.695Z,16.63
2022-12-18T11:07:10.157Z,14.82
2022-12-18T11:09:41.795Z,14.18
2022-12-18T11:12:12.029Z,13.27
2022-12-18T11:14:52.889Z,13.52
2022-12-18T11:17:36.878Z,13.57
2022-12-18T11:20:28.482Z,17.95
2022-12-18T11:23:04.417Z,12.65
2022-12-18T11:25:36.186Z,11.90
2022-12-18T11:28:43.436Z,12.48
2022-12-18T11:31:22.413Z,23.30
2022-12-18T11:34:34.277Z,17.13
2022-12-18T11:37:05.613Z,13.25
2022-12-18T11:39:51.524Z,17.52
2022-12-18T11:42:29.217Z,22.75
2022-12-18T11:45:19.706Z,16.85
2022-12-18T11:48:08.103Z,15.52
2022-12-18T11:50:49.577Z,16.40
2022-12-18T11:53:20.549Z,17.00
2022-12-18T11:56:05.044Z,22.95
2022-12-18T11:58:41.405Z,16.33
2022-12-18T12:01:29.361Z,14.45
2022-12-18T12:04:08.207Z,18.05
2022-12-18T12:06:51.016Z,15.25
2022-12-18T12:09:49.467Z,16.30
2022-12-18T12:12:49.130Z,16.85
2022-12-18T12:16:04.604Z,22.33
2022-12-18T12:18:46.549Z,17.63
2022-12-18T12:21:38.043Z,15.50
2022-12-18T12:24:28.940Z,19.05
2022-12-18T12:27:22.746Z,21.25
2022-12-18T12:30:02.010Z,17.70
2022-12-18T12:32:43.956Z,15.65
2022-12-18T12:35:56.436Z,14.48
2022-12-18T12:38:49.832Z,13.38
2022-12-18T12:41:50.136Z,18.10
2022-12-18T12:44:34.878Z,15.20
2022-12-18T12:47:20.243Z,14.93
2022-12-18T12:49:51.937Z,15.23
2022-12-18T12:52:45.550Z,13.93
2022-12-18T12:55:23.757Z,14.77
2022-12-18T12:58:09.423Z,14.88
2022-12-18T13:01:06.038Z,15.55
2022-12-18T13:03:49.512Z,14.85
2022-12-18T13:06:47.909Z,14.20
2022-12-18T13:09:18.308Z,16.98
2022-12-18T13:12:07.932Z,17.92
2022-12-18T13:14:41.597Z,16.42
2022-12-18T13:17:32.243Z,16.60
2022-12-18T13:20:15.447Z,22.27
2022-12-18T13:22:50.247Z,18.55
2022-12-18T13:25:37.698Z,17.10
2022-12-18T13:28:14.386Z,18.85
2022-12-18T13:30:55.667Z,13.80
2022-12-18T13:33:30.784Z,12.77
2022-12-18T13:36:15.981Z,23.50
2022-12-18T13:38:46.964Z,16.95
2022-12-18T13:41:25.537Z,14.50
2022-12-18T13:43:59.985Z,24.23
2022-12-18T13:46:43.122Z,18.85
2022-12-18T13:49:13.450Z,15.77
2022-12-18T13:51:54.088Z,13.98
2022-12-18T13:54:36.503Z,15.95
2022-12-18T13:57:26.720Z,11.82
2022-12-18T13:59:58.417Z,16.05
2022-12-18T14:02:29.697Z,21.55
2022-12-18T14:05:00.453Z,19.88
2022-12-18T14:07:38.104Z,16.83
2022-12-18T14:13:10.941Z,13.25
2022-12-18T14:15:45.469Z,18.10
2022-12-18T14:18:15.620Z,18.38
2022-12-18T14:20:50.741Z,14.95
2022-12-18T14:26:21.921Z,11.23
2022-12-18T14:28:52.693Z,16.80
2022-12-18T14:31:25.932Z,15.70
2022-12-18T14:33:56.944Z,18.13
2022-12-18T14:36:30.602Z,16.23
2022-12-18T14:39:02.228Z,15.60
2022-12-18T14:41:34.278Z,20.15
2022-12-18T14:44:08.258Z,17.77
2022-12-18T14:46:41.224Z,17.17
2022-12-18T14:49:24.196Z,24.58
2022-12-18T14:51:56.676Z,17.75
2022-12-18T14:54:29.290Z,18.40
2022-12-18T14:57:05.221Z,24.40
2022-12-18T14:59:35.435Z,20.88
2022-12-18T15:02:22.055Z,22.10
2022-12-18T15:05:14.280Z,20.00
2022-12-18T15:07:50.875Z,22.30
2022-12-18T15:10:30.440Z,23.83
2022-12-18T15:13:01.736Z,23.00
2022-12-18T15:15:35.310Z,30.40
2022-12-18T15:18:14.426Z,26.55
2022-12-18T15:20:47.478Z,21.08
2022-12-18T15:23:37.832Z,19.90
2022-12-18T15:26:11.664Z,21.88
2022-12-18T15:28:51.242Z,23.10
2022-12-18T15:31:25.519Z,34.33
2022-12-18T15:33:55.754Z,23.02
2022-12-18T15:36:37.496Z,27.92
2022-12-18T15:39:07.890Z,21.30
2022-12-18T15:41:38.048Z,17.13
2022-12-18T15:44:25.846Z,22.00
2022-12-18T15:46:59.831Z,15.90
2022-12-18T15:49:30.018Z,21.20
2022-12-18T15:52:01.183Z,19.83
2022-12-18T15:54:50.106Z,28.25
2022-12-18T15:57:26.286Z,18.17
2022-12-18T16:00:00.762Z,19.67
2022-12-18T16:02:31.130Z,22.23
2022-12-18T16:05:01.936Z,15.32
2022-12-18T16:07:33.317Z,16.35
2022-12-18T16:10:04.641Z,15.20
2022-12-18T16:12:35.375Z,15.27
2022-12-18T16:15:07.736Z,22.08
2022-12-18T16:17:39.284Z,17.30
2022-12-18T16:20:16.191Z,13.20
2022-12-18T16:22:48.292Z,16.52
2022-12-18T16:25:27.470Z,17.40
2022-12-18T16:27:57.983Z,18.80
2022-12-18T16:30:33.089Z,14.20
2022-12-18T16:33:11.712Z,14.60
2022-12-18T16:35:41.926Z,15.43
2022-12-18T16:38:13.124Z,15.40
2022-12-18T16:41:03.217Z,15.40
2022-12-18T16:43:33.422Z,15.73
2022-12-18T16:46:04.349Z,14.77
2022-12-18T16:48:37.535Z,19.73
2022-12-18T16:51:07.828Z,13.68
2022-12-18T16:53:38.247Z,22.52
2022-12-18T16:56:08.649Z,52.28
2022-12-18T16:58:38.889Z,24.90
2022-12-18T17:01:12.130Z,21.25
2022-12-18T17:03:43.689Z,21.50
2022-12-18T17:06:15.441Z,19.67
2022-12-18T17:08:47.166Z,19.35
2022-12-18T17:11:17.334Z,28.08
2022-12-18T17:13:47.543Z,22.75
2022-12-18T17:16:17.891Z,24.40
2022-12-18T17:18:49.083Z,20.77
2022-12-18T17:21:19.572Z,20.40
2022-12-18T17:23:49.946Z,24.65
2022-12-18T17:26:22.549Z,19.02
2022-12-18T17:28:53.078Z,15.98
2022-12-18T17:31:26.338Z,15.02
2022-12-18T17:33:57.432Z,18.10
2022-12-18T17:36:29.244Z,17.30
2022-12-18T17:39:01.656Z,17.20
2022-12-18T17:41:32.031Z,18.17
2022-12-18T17:44:05.719Z,13.52
2022-12-18T17:46:35.951Z,17.75
2022-12-18T17:49:06.199Z,31.48
2022-12-18T17:51:36.455Z,35.83
2022-12-18T17:54:07.015Z,17.80
2022-12-18T17:56:37.339Z,18.70
2022-12-18T17:59:07.803Z,22.17
2022-12-18T18:01:44.143Z,15.40
2022-12-18T18:04:15.882Z,20.85
2022-12-18T18:06:47.690Z,19.10
2022-12-18T18:09:17.840Z,18.33
2022-12-18T18:12:06.487Z,25.65
2022-12-18T18:14:36.732Z,15.68
2022-12-18T18:17:07.302Z,18.20
2022-12-18T18:19:37.579Z,19.42
2022-12-18T18:22:11.548Z,21.95
2022-12-18T18:24:43.745Z,17.13
2022-12-18T18:27:13.871Z,19.83
2022-12-18T18:29:44.421Z,19.45
2022-12-18T18:32:14.671Z,20.25
2022-12-18T18:34:44.952Z,23.70
2022-12-18T18:37:15.169Z,23.67
2022-12-18T18:39:45.437Z,16.42
2022-12-18T18:42:15.690Z,23.75
2022-12-18T18:44:48.969Z,19.95
2022-12-18T18:47:19.364Z,21.02
2022-12-18T18:49:49.578Z,19.92
2022-12-18T18:52:19.770Z,20.75
2022-12-18T18:55:11.607Z,26.13
2022-12-18T18:57:40.053Z,20.35
2022-12-18T19:00:10.947Z,15.73
2022-12-18T19:02:41.541Z,33.35
2022-12-18T19:05:11.982Z,18.00
2022-12-18T19:07:42.436Z,19.00
2022-12-18T19:10:12.643Z,27.17
2022-12-18T19:13:02.743Z,18.63
2022-12-18T19:15:34.453Z,20.67
2022-12-18T19:18:04.808Z,18.90
2022-12-18T19:20:35.109Z,21.45
2022-12-18T19:23:06.600Z,33.92
2022-12-18T19:25:42.177Z,30.40
2022-12-18T19:28:21.262Z,26.17
2022-12-18T19:30:57.587Z,20.05
2022-12-18T19:33:43.249Z,18.05
2022-12-18T19:36:25.630Z,24.45
2022-12-18T19:38:59.636Z,22.40
2022-12-18T19:41:31.183Z,20.25
2022-12-18T19:44:07.570Z,21.77
2022-12-18T19:46:41.623Z,21.58
2022-12-18T19:49:16.757Z,20.83
2022-12-18T19:51:50.505Z,17.63
2022-12-18T19:54:20.930Z,19.88
2022-12-18T19:56:53.041Z,23.60
2022-12-18T19:59:23.864Z,20.00
2022-12-18T20:01:54.478Z,18.25
2022-12-18T20:04:24.832Z,25.95
2022-12-18T20:06:55.440Z,16.90
2022-12-18T20:09:25.768Z,21.17
2022-12-18T20:11:56.413Z,20.35
2022-12-18T20:14:26.609Z,24.00
2022-12-18T20:16:56.842Z,17.48
2022-12-18T20:19:30.058Z,19.10
2022-12-18T20:22:00.344Z,22.05
2022-12-18T20:24:30.513Z,16.90
2022-12-18T20:27:00.721Z,24.10
2022-12-18T20:29:31.032Z,15.63
2022-12-18T20:32:01.387Z,19.23
2022-12-18T20:34:31.740Z,16.80
2022-12-18T20:37:02.172Z,18.73
2022-12-18T20:39:32.846Z,19.70
2022-12-18T20:42:04.477Z,31.83
2022-12-18T20:44:34.713Z,18.75
2022-12-18T20:47:08.429Z,23.58
2022-12-18T20:49:39.569Z,19.75
2022-12-18T20:52:15.951Z,22.55
2022-12-18T20:54:46.213Z,26.00
2022-12-18T20:57:16.362Z,18.63
2022-12-18T20:59:48.533Z,25.50
2022-12-18T21:02:18.996Z,24.23
2022-12-18T21:04:49.498Z,34.63
2022-12-18T21:07:19.926Z,22.73
2022-12-18T21:09:50.303Z,22.42
2022-12-18T21:12:40.283Z,19.55
2022-12-18T21:15:17.783Z,14.82
2022-12-18T21:17:48.582Z,21.55
2022-12-18T21:20:18.908Z,17.65
2022-12-18T21:22:49.613Z,16.40
2022-12-18T21:25:19.826Z,22.40
2022-12-18T21:27:50.010Z,14.88
2022-12-18T21:30:20.528Z,17.65
2022-12-18T21:32:51.018Z,22.48
2022-12-18T21:35:21.228Z,17.02
2022-12-18T21:37:53.486Z,16.88
2022-12-18T21:40:24.078Z,27.52
2022-12-18T21:43:14.955Z,27.83
2022-12-18T21:45:48.047Z,31.00
2022-12-18T21:48:18.288Z,18.42
2022-12-18T21:50:48.398Z,27.67
2022-12-18T21:53:18.551Z,30.00
2022-12-18T21:55:57.988Z,29.40
2022-12-18T21:58:28.213Z,21.48
2022-12-18T22:00:58.415Z,24.02
2022-12-18T22:03:28.761Z,20.58
2022-12-18T22:06:07.562Z,18.60
2022-12-18T22:08:42.618Z,18.48
2022-12-18T22:11:14.219Z,24.27
2022-12-18T22:13:45.903Z,21.65
2022-12-18T22:16:16.082Z,32.15
2022-12-18T22:18:46.308Z,24.13
2022-12-18T22:21:29.642Z,20.88
2022-12-18T22:24:02.514Z,24.70
2022-12-18T22:26:39.841Z,28.98
2022-12-18T22:29:42.819Z,19.65
2022-12-18T22:32:29.087Z,26.65
2022-12-18T22:35:07.305Z,27.33
2022-12-18T22:37:39.609Z,31.77
2022-12-18T22:40:23.926Z,30.05
2022-12-18T22:42:56.344Z,18.13
2022-12-18T22:45:27.059Z,25.60
2022-12-18T22:47:57.504Z,24.67
2022-12-18T22:50:27.820Z,26.52
2022-12-18T22:52:58.151Z,24.77
2022-12-18T22:55:28.297Z,26.50
2022-12-18T22:57:59.729Z,22.02
2022-12-18T23:00:30.681Z,31.20
2022-12-18T23:03:04.497Z,24.38
2022-12-18T23:05:37.405Z,22.70
2022-12-18T23:08:07.584Z,20.85
2022-12-18T23:10:38.981Z,24.02
2022-12-18T23:13:12.295Z,16.52
2022-12-18T23:15:43.032Z,25.70
2022-12-18T23:18:13.214Z,18.70
2022-12-18T23:20:43.637Z,28.23
2022-12-18T23:23:14.625Z,31.80
2022-12-18T23:25:45.289Z,25.38
2022-12-18T23:28:16.919Z,19.27
2022-12-18T23:30:47.067Z,21.13
2022-12-18T23:33:17.183Z,27.75
2022-12-18T23:35:47.438Z,19.92
2022-12-18T23:38:17.683Z,21.92
2022-12-18T23:40:47.934Z,24.70
2022-12-18T23:43:19.176Z,20.00
2022-12-18T23:45:55.399Z,26.13
2022-12-18T23:48:26.330Z,17.20
2022-12-18T23:50:56.938Z,28.70
2022-12-18T23:53:27.050Z,16.88
2022-12-18T23:55:57.239Z,25.13
2022-12-18T23:58:29.759Z,21.80
